Terminal Aerodrome Forecast
Issued by NWS Jackson, MS

Home | Current Version | Previous Version | Text Only | Print | Product List | Glossary On
Versions: 1 2 3 4 5 6 7 8 9 10 11 12 13 14 15 16 17 18 19 20 21 22
000
FTUS44 KJAN 071735
TAFGWO
TAF
KGWO 071735Z 0718/0818 21012G18KT P6SM VCSH SCT035 SCT050
     FM072300 20008KT P6SM FEW050 SCT250
     FM080900 20008KT P6SM SCT010 BKN015
      TEMPO 0811/0815 BKN008
     FM081500 20010KT P6SM SCT015 SCT025=

USA.gov is the U.S. government's official web portal to all federal, state and local government web resources and services.